Time;durP1;ratioP1;P1;durP2;ratioP2;P2;SDS_P1;SDS_P2;PMS_P1;PMS_P2;Temp;Humidity;BMP_temperature;BMP_pressure;BME280_temperature;BME280_humidity;BME280_pressure;Samples;Min_cycle;Max_cycle;Signal;HPM_P1;HPM_P2
2023/07/13 00:02:03;;;;;;;;;;;;;;;24.46;37.89;101218.25;5055842;28;19924;-84
2023/07/13 00:04:28;;;;;;;;;;;;;;;24.36;37.94;101222.97;5057232;28;20304;-84
2023/07/13 00:06:53;;;;;;;;;;;;;;;24.31;37.72;101225.88;5053102;28;19924;-84
2023/07/13 00:09:19;;;;;;;;;;;;;;;24.31;37.76;101230.56;5052170;28;20388;-84
2023/07/13 00:11:47;;;;;;;;;;;;;;;24.34;37.90;101235.38;5058250;28;19921;-84
2023/07/13 00:14:12;;;;;;;;;;;;;;;24.35;37.88;101237.78;5055889;28;19928;-84
2023/07/13 00:16:40;;;;;;;;;;;;;;;24.34;37.91;101235.38;5053102;28;20312;-84
2023/07/13 00:19:06;;;;;;;;;;;;;;;24.32;37.87;101232.16;5053557;28;20301;-84
2023/07/13 00:21:31;;;;;;;;;;;;;;;24.30;37.87;101240.72;5053745;28;20398;-84
2023/07/13 00:23:57;;;;;;;;;;;;;;;24.29;38.00;101244.59;5053112;28;19974;-84
2023/07/13 00:26:22;;;;;;;;;;;;;;;24.26;38.17;101255.38;5058806;28;19926;-84
2023/07/13 00:28:48;;;;;;;;;;;;;;;24.23;38.25;101264.22;5056887;28;19974;-84
2023/07/13 00:31:17;;;;;;;;;;;;;;;24.21;38.19;101271.94;5053281;28;20108;-84
2023/07/13 00:33:42;;;;;;;;;;;;;;;24.17;38.29;101276.47;5053786;28;19978;-84
2023/07/13 00:36:08;;;;;;;;;;;;;;;24.11;38.16;101287.63;5051513;28;19928;-85
2023/07/13 00:38:33;;;;;;;;;;;;;;;24.07;37.99;101285.88;5051950;28;19921;-84
2023/07/13 00:40:58;;;;;;;;;;;;;;;24.04;38.43;101283.75;5054571;28;19938;-84
2023/07/13 00:43:26;;;;;;;;;;;;;;;24.00;38.62;101280.06;5050141;28;19955;-84
2023/07/13 00:45:51;;;;;;;;;;;;;;;23.96;38.50;101288.13;5052388;28;19986;-84
2023/07/13 00:48:36;;;;;;;;;;;;;;;23.93;38.50;101285.25;5051228;28;19916;-84
2023/07/13 00:51:02;;;;;;;;;;;;;;;23.88;38.70;101294.44;5054491;28;19925;-84
2023/07/13 00:53:28;;;;;;;;;;;;;;;23.83;38.86;101283.63;5051245;28;19917;-84
2023/07/13 00:55:55;;;;;;;;;;;;;;;23.77;39.02;101282.22;5050804;28;20088;-84
2023/07/13 00:58:20;;;;;;;;;;;;;;;23.76;38.93;101281.41;5051456;28;20145;-84
2023/07/13 01:00:46;;;;;;;;;;;;;;;23.72;39.11;101283.19;5052456;28;19925;-84
2023/07/13 01:03:12;;;;;;;;;;;;;;;23.70;39.25;101288.19;5052544;28;19936;-84
2023/07/13 01:05:38;;;;;;;;;;;;;;;23.68;39.44;101287.66;5050139;28;20385;-84
2023/07/13 01:08:05;;;;;;;;;;;;;;;23.66;39.30;101269.97;5067997;28;19920;-84
2023/07/13 01:10:38;;;;;;;;;;;;;;;23.65;39.39;101282.84;5050558;28;19927;-84
2023/07/13 01:13:04;;;;;;;;;;;;;;;23.63;39.24;101276.09;5050919;28;19921;-84
2023/07/13 01:15:39;;;;;;;;;;;;;;;23.61;39.46;101281.91;5050470;28;20359;-84
2023/07/13 01:18:05;;;;;;;;;;;;;;;23.57;39.49;101272.72;5050585;28;19947;-84
2023/07/13 01:20:35;;;;;;;;;;;;;;;23.55;39.45;101274.16;5053118;28;19917;-84
2023/07/13 01:23:01;;;;;;;;;;;;;;;23.52;39.58;101265.47;5054407;28;19925;-84
2023/07/13 01:25:26;;;;;;;;;;;;;;;23.52;39.65;101264.66;5050374;28;19927;-84
2023/07/13 01:27:51;;;;;;;;;;;;;;;23.47;39.86;101265.63;5050605;28;20339;-84
2023/07/13 01:30:17;;;;;;;;;;;;;;;23.36;40.00;101266.28;5052951;28;20019;-84
2023/07/13 01:32:42;;;;;;;;;;;;;;;23.33;39.69;101270.44;5054678;28;19928;-84
2023/07/13 01:35:07;;;;;;;;;;;;;;;23.30;39.96;101268.34;5049536;28;19928;-83
2023/07/13 01:37:35;;;;;;;;;;;;;;;23.30;39.77;101262.88;5049763;28;20285;-84
2023/07/13 01:40:01;;;;;;;;;;;;;;;23.26;40.14;101261.91;5054440;28;20031;-84
2023/07/13 01:42:27;;;;;;;;;;;;;;;23.20;40.31;101247.63;5055909;28;20488;-84
2023/07/13 01:44:53;;;;;;;;;;;;;;;23.15;40.07;101257.88;5051378;28;20475;-83
2023/07/13 01:47:18;;;;;;;;;;;;;;;23.14;39.96;101259.81;5051793;28;19920;-84
2023/07/13 01:49:45;;;;;;;;;;;;;;;23.13;40.26;101251.94;5055015;28;19967;-84
2023/07/13 01:52:11;;;;;;;;;;;;;;;23.07;40.32;101251.28;5055572;28;20430;-84
2023/07/13 01:54:36;;;;;;;;;;;;;;;23.02;40.26;101251.47;5054085;28;19921;-84
2023/07/13 01:57:03;;;;;;;;;;;;;;;22.99;40.20;101245.84;5058585;28;19924;-84
2023/07/13 01:59:28;;;;;;;;;;;;;;;22.96;40.29;101247.25;5055624;28;19924;-83
2023/07/13 02:01:53;;;;;;;;;;;;;;;22.92;40.43;101244.34;5053578;28;20660;-84
2023/07/13 02:04:19;;;;;;;;;;;;;;;22.90;40.26;101246.59;5051997;28;19975;-84
2023/07/13 02:06:44;;;;;;;;;;;;;;;22.88;40.57;101245.31;5054424;28;19974;-84
2023/07/13 02:09:10;;;;;;;;;;;;;;;22.82;41.04;101254.78;5053901;28;19924;-84
2023/07/13 02:11:35;;;;;;;;;;;;;;;22.79;40.81;101247.19;5055912;28;19928;-84
2023/07/13 02:14:03;;;;;;;;;;;;;;;22.78;41.01;101251.03;5053537;28;19925;-84
2023/07/13 02:16:29;;;;;;;;;;;;;;;22.78;40.74;101262.78;5053993;28;20395;-84
2023/07/13 02:18:55;;;;;;;;;;;;;;;22.80;40.94;101262.44;5053964;28;19929;-84
2023/07/13 02:21:21;;;;;;;;;;;;;;;22.79;41.30;101279.97;5058343;28;20384;-84
2023/07/13 02:23:46;;;;;;;;;;;;;;;22.73;41.39;101282.03;5052869;28;20031;-84
2023/07/13 02:26:11;;;;;;;;;;;;;;;22.66;41.53;101280.91;5057576;28;19924;-84
2023/07/13 02:28:37;;;;;;;;;;;;;;;22.67;41.20;101282.53;5053483;28;19928;-84
2023/07/13 02:31:09;;;;;;;;;;;;;;;22.65;41.42;101291.03;5054051;28;19955;-84
2023/07/13 02:33:34;;;;;;;;;;;;;;;22.61;41.55;101296.28;5052659;28;19978;-83
2023/07/13 02:36:00;;;;;;;;;;;;;;;22.58;41.58;101299.66;5053177;28;20385;-84
2023/07/13 02:38:25;;;;;;;;;;;;;;;22.60;41.49;101296.63;5052161;28;19947;-84
2023/07/13 02:40:51;;;;;;;;;;;;;;;22.63;41.36;101301.47;5054200;28;20211;-84
2023/07/13 02:43:16;;;;;;;;;;;;;;;22.67;41.20;101298.91;5052119;28;19960;-84
2023/07/13 02:45:45;;;;;;;;;;;;;;;22.65;41.42;101309.34;5053283;28;19979;-84
2023/07/13 02:48:10;;;;;;;;;;;;;;;22.59;41.29;101325.84;5053573;28;20514;-84
2023/07/13 02:50:35;;;;;;;;;;;;;;;22.57;41.21;101322.63;5054171;28;19924;-84
2023/07/13 02:53:01;;;;;;;;;;;;;;;22.57;41.23;101319.09;5052404;28;20412;-84
2023/07/13 02:55:26;;;;;;;;;;;;;;;22.56;41.26;101314.75;5052247;28;19956;-84
2023/07/13 02:57:51;;;;;;;;;;;;;;;22.54;41.28;101317.00;5054461;28;19925;-84
2023/07/13 03:00:17;;;;;;;;;;;;;;;22.52;41.24;101303.66;5054720;28;20299;-84
2023/07/13 03:02:42;;;;;;;;;;;;;;;22.50;41.33;101314.09;5052748;28;19920;-84
2023/07/13 03:05:10;;;;;;;;;;;;;;;22.47;41.28;101298.34;5053498;28;19924;-84
2023/07/13 03:07:36;;;;;;;;;;;;;;;22.45;41.20;101289.66;5051575;28;19923;-84
2023/07/13 03:10:01;;;;;;;;;;;;;;;22.45;41.30;101292.41;5055972;28;20064;-84
2023/07/13 03:12:27;;;;;;;;;;;;;;;22.45;41.34;101286.94;5052907;28;19923;-84
2023/07/13 03:14:52;;;;;;;;;;;;;;;22.45;41.09;101292.41;5054615;28;19970;-84
2023/07/13 03:17:17;;;;;;;;;;;;;;;22.44;41.27;101298.97;5053051;28;19986;-84
2023/07/13 03:19:43;;;;;;;;;;;;;;;22.41;41.31;101288.66;5054915;28;20351;-84
2023/07/13 03:22:09;;;;;;;;;;;;;;;22.39;41.17;101299.09;5055029;28;19924;-83
2023/07/13 03:24:34;;;;;;;;;;;;;;;22.31;41.62;101308.88;5054024;28;20372;-84
2023/07/13 03:27:03;;;;;;;;;;;;;;;22.20;42.13;101307.50;5054959;28;20334;-84
2023/07/13 03:29:28;;;;;;;;;;;;;;;22.14;42.35;101305.22;5057350;28;20015;-84
2023/07/13 03:31:54;;;;;;;;;;;;;;;22.16;41.66;101314.72;5055417;28;20018;-83
2023/07/13 03:34:19;;;;;;;;;;;;;;;22.21;41.68;101319.22;5054379;28;19916;-84
2023/07/13 03:36:44;;;;;;;;;;;;;;;22.23;41.82;101312.34;5054050;28;19920;-84
2023/07/13 03:39:10;;;;;;;;;;;;;;;22.26;41.64;101310.91;5056250;28;19921;-84
2023/07/13 03:41:36;;;;;;;;;;;;;;;22.30;41.57;101309.19;5053200;28;19921;-83
2023/07/13 03:44:01;;;;;;;;;;;;;;;22.30;41.46;101309.19;5053474;28;19924;-84
2023/07/13 03:46:27;;;;;;;;;;;;;;;22.32;41.38;101304.22;5061184;28;19917;-84
2023/07/13 03:48:52;;;;;;;;;;;;;;;22.33;41.75;101311.28;5054128;28;20376;-84
2023/07/13 03:51:18;;;;;;;;;;;;;;;22.37;41.69;101308.72;5054200;28;20690;-84
2023/07/13 03:53:44;;;;;;;;;;;;;;;22.40;41.37;101311.63;5050311;28;19924;-84
2023/07/13 03:56:10;;;;;;;;;;;;;;;22.42;41.63;101306.66;5052417;28;19917;-84
2023/07/13 03:58:37;;;;;;;;;;;;;;;22.44;41.64;101309.91;5052168;28;19917;-84
2023/07/13 04:01:05;;;;;;;;;;;;;;;22.48;42.01;101313.59;5049620;28;19927;-83
2023/07/13 04:03:32;;;;;;;;;;;;;;;22.52;41.80;101320.03;5052779;28;19999;-84
2023/07/13 04:05:59;;;;;;;;;;;;;;;22.57;41.65;101322.63;5051476;28;20792;-84
2023/07/13 04:08:25;;;;;;;;;;;;;;;22.64;41.57;101329.59;5054038;28;20031;-84
2023/07/13 04:10:50;;;;;;;;;;;;;;;22.68;41.73;101334.09;5061120;28;20308;-84
2023/07/13 04:13:16;;;;;;;;;;;;;;;22.70;41.81;101334.59;5051184;28;19917;-84
2023/07/13 04:15:41;;;;;;;;;;;;;;;22.72;41.61;101350.66;5051107;28;19936;-84
2023/07/13 04:18:06;;;;;;;;;;;;;;;22.72;41.69;101345.19;5051968;28;19924;-83
2023/07/13 04:20:32;;;;;;;;;;;;;;;22.76;41.65;101336.03;5051532;28;19925;-84
2023/07/13 04:22:58;;;;;;;;;;;;;;;22.82;42.03;101328.56;5050310;28;20405;-83
2023/07/13 04:25:23;;;;;;;;;;;;;;;22.88;41.94;101332.75;5053199;28;19921;-83
2023/07/13 04:27:49;;;;;;;;;;;;;;;22.91;41.84;101332.91;5051186;28;20365;-83
2023/07/13 04:30:14;;;;;;;;;;;;;;;22.95;42.11;101338.53;5054744;28;19925;-84
2023/07/13 04:32:40;;;;;;;;;;;;;;;23.02;41.99;101333.44;5052143;28;19975;-83
2023/07/13 04:35:05;;;;;;;;;;;;;;;23.11;41.89;101330.72;5052051;28;19960;-84
2023/07/13 04:37:30;;;;;;;;;;;;;;;23.21;41.87;101338.63;5053456;28;19921;-84
2023/07/13 04:39:56;;;;;;;;;;;;;;;23.35;41.91;101335.75;5053214;28;20569;-83
2023/07/13 04:42:22;;;;;;;;;;;;;;;23.49;41.55;101339.13;5060636;28;19927;-83
2023/07/13 04:44:50;;;;;;;;;;;;;;;23.63;41.49;101347.22;5050402;28;20010;-83
2023/07/13 04:47:16;;;;;;;;;;;;;;;23.76;41.46;101347.06;5054315;28;19967;-84
2023/07/13 04:49:41;;;;;;;;;;;;;;;23.88;41.87;101359.28;5052437;28;19964;-84
2023/07/13 04:52:07;;;;;;;;;;;;;;;23.96;41.38;101355.75;5053185;28;19993;-84
2023/07/13 04:54:33;;;;;;;;;;;;;;;24.03;41.31;101364.25;5051738;28;20389;-83
2023/07/13 04:56:58;;;;;;;;;;;;;;;24.10;41.09;101361.84;5061500;28;20369;-83
2023/07/13 04:59:23;;;;;;;;;;;;;;;24.19;41.09;101365.38;5056567;28;19959;-83
2023/07/13 05:01:49;;;;;;;;;;;;;;;24.27;40.93;101371.97;5054948;28;19924;-83
2023/07/13 05:04:14;;;;;;;;;;;;;;;24.35;40.75;101369.22;5056881;28;20447;-84
2023/07/13 05:06:40;;;;;;;;;;;;;;;24.41;40.74;101372.59;5056930;28;19975;-83
2023/07/13 05:09:05;;;;;;;;;;;;;;;24.47;40.59;101373.25;5055889;28;19929;-83
2023/07/13 05:11:31;;;;;;;;;;;;;;;24.51;40.67;101366.78;5055811;28;19998;-83
2023/07/13 05:13:56;;;;;;;;;;;;;;;24.59;40.67;101374.16;5055388;28;20406;-84
2023/07/13 05:16:21;;;;;;;;;;;;;;;24.70;40.66;101369.13;5056416;28;19932;-83
2023/07/13 05:18:47;;;;;;;;;;;;;;;24.81;40.60;101369.59;5052692;28;19917;-84
2023/07/13 05:21:12;;;;;;;;;;;;;;;24.90;40.69;101373.06;5051717;28;19927;-84
2023/07/13 05:23:37;;;;;;;;;;;;;;;24.99;40.60;101379.34;5052480;28;19916;-86
2023/07/13 05:26:03;;;;;;;;;;;;;;;25.09;40.76;101381.72;5055785;28;19967;-84
2023/07/13 05:28:30;;;;;;;;;;;;;;;25.20;40.50;101382.16;5060880;28;19921;-83
2023/07/13 05:30:55;;;;;;;;;;;;;;;25.34;40.49;101387.41;5059401;28;19931;-84
2023/07/13 05:33:21;;;;;;;;;;;;;;;25.50;40.42;101388.44;5064182;28;19920;-84
2023/07/13 05:35:46;;;;;;;;;;;;;;;25.66;40.19;101388.63;5059388;28;19932;-82
2023/07/13 05:38:12;;;;;;;;;;;;;;;25.78;40.16;101392.25;5061106;28;19931;-82
2023/07/13 05:40:37;;;;;;;;;;;;;;;25.89;40.32;101392.69;5060184;28;20336;-82
2023/07/13 05:43:03;;;;;;;;;;;;;;;26.00;40.12;101399.34;5060852;28;19924;-82
2023/07/13 05:45:28;;;;;;;;;;;;;;;26.14;39.49;101394.38;5056341;28;20354;-82
2023/07/13 05:47:53;;;;;;;;;;;;;;;26.24;39.27;101392.34;5058961;28;19930;-82
2023/07/13 05:50:19;;;;;;;;;;;;;;;26.32;38.98;101400.50;5057068;28;20408;-83
2023/07/13 05:52:45;;;;;;;;;;;;;;;26.36;38.94;101389.66;5061490;28;19965;-82
2023/07/13 05:55:10;;;;;;;;;;;;;;;26.44;38.86;101386.03;5060879;28;20043;-83
2023/07/13 05:57:35;;;;;;;;;;;;;;;26.56;38.74;101393.47;5055617;28;19920;-83
2023/07/13 06:00:01;;;;;;;;;;;;;;;26.73;38.69;101398.78;5067691;28;19925;-83
2023/07/13 06:02:27;;;;;;;;;;;;;;;26.87;38.26;101409.44;5058891;28;20002;-82
2023/07/13 06:04:52;;;;;;;;;;;;;;;27.03;38.17;101399.41;5065552;28;19924;-83
2023/07/13 06:07:18;;;;;;;;;;;;;;;27.12;37.79;101400.13;5056622;28;19961;-82
2023/07/13 06:09:43;;;;;;;;;;;;;;;27.25;37.82;101404.44;5066408;28;20477;-83
2023/07/13 06:12:09;;;;;;;;;;;;;;;27.31;37.66;101405.84;5063560;28;20509;-82
2023/07/13 06:14:36;;;;;;;;;;;;;;;27.40;37.40;101398.25;5060524;28;20205;-83
2023/07/13 06:17:01;;;;;;;;;;;;;;;27.45;36.94;101394.44;5069176;28;19967;-83
2023/07/13 06:19:29;;;;;;;;;;;;;;;27.52;36.95;101402.94;5064638;28;19942;-83
2023/07/13 06:21:54;;;;;;;;;;;;;;;27.65;36.75;101395.47;5068488;28;21652;-82
2023/07/13 06:24:19;;;;;;;;;;;;;;;27.74;36.85;101401.63;5061075;28;20000;-83
2023/07/13 06:26:44;;;;;;;;;;;;;;;27.83;36.64;101402.31;5062835;28;19923;-82
2023/07/13 06:29:10;;;;;;;;;;;;;;;27.98;36.89;101390.53;5063427;28;19943;-83
2023/07/13 06:31:35;;;;;;;;;;;;;;;28.09;35.85;101392.78;5064874;28;20415;-83
2023/07/13 06:34:00;;;;;;;;;;;;;;;28.24;36.14;101400.31;5066361;28;19966;-82
2023/07/13 06:36:26;;;;;;;;;;;;;;;28.36;36.00;101397.50;5059664;28;20007;-82
2023/07/13 06:38:51;;;;;;;;;;;;;;;28.48;35.82;101394.69;5062090;28;19924;-83
2023/07/13 06:41:16;;;;;;;;;;;;;;;28.61;35.45;101394.59;5056314;28;19924;-83
2023/07/13 06:43:42;;;;;;;;;;;;;;;28.67;35.26;101384.91;5054321;28;20487;-82
2023/07/13 06:46:07;;;;;;;;;;;;;;;28.67;34.73;101382.94;5056862;28;19917;-82
2023/07/13 06:48:33;;;;;;;;;;;;;;;28.76;35.09;101389.09;5056047;28;19921;-83
2023/07/13 06:50:58;;;;;;;;;;;;;;;28.88;35.18;101388.22;5063303;28;19963;-83
2023/07/13 06:53:25;;;;;;;;;;;;;;;29.02;34.89;101391.31;5057720;28;19920;-83
2023/07/13 06:55:51;;;;;;;;;;;;;;;29.13;34.47;101391.59;5062152;28;19920;-82
2023/07/13 06:58:17;;;;;;;;;;;;;;;29.25;34.19;101387.91;5057025;28;19920;-82
2023/07/13 07:00:42;;;;;;;;;;;;;;;29.36;34.08;101394.47;5053490;28;19973;-82
2023/07/13 07:03:08;;;;;;;;;;;;;;;29.46;33.56;101399.47;5060547;28;19916;-83
2023/07/13 07:05:33;;;;;;;;;;;;;;;29.50;33.54;101389.31;5061027;28;20414;-83
2023/07/13 07:07:58;;;;;;;;;;;;;;;29.61;33.80;101390.31;5065472;28;19977;-83
2023/07/13 07:10:24;;;;;;;;;;;;;;;29.72;32.38;101380.31;5058756;28;19924;-83
2023/07/13 07:12:49;;;;;;;;;;;;;;;29.91;33.36;101381.47;5055209;28;20012;-82
2023/07/13 07:15:14;;;;;;;;;;;;;;;30.08;33.29;101387.38;5055358;28;21020;-83
2023/07/13 07:17:40;;;;;;;;;;;;;;;30.25;33.04;101383.34;5056109;28;19928;-82
2023/07/13 07:20:05;;;;;;;;;;;;;;;30.34;31.89;101372.03;5064709;28;20664;-83
2023/07/13 07:22:31;;;;;;;;;;;;;;;30.42;32.44;101379.31;5060188;28;19913;-82
2023/07/13 07:24:57;;;;;;;;;;;;;;;30.55;32.21;101382.72;5058534;28;20003;-83
2023/07/13 07:27:22;;;;;;;;;;;;;;;30.57;31.97;101380.38;5061192;28;19924;-82
2023/07/13 07:29:47;;;;;;;;;;;;;;;30.68;32.09;101381.34;5063059;28;19959;-83
2023/07/13 07:32:13;;;;;;;;;;;;;;;30.81;32.05;101363.41;5059332;28;20283;-82
2023/07/13 07:34:38;;;;;;;;;;;;;;;30.90;31.32;101372.25;5063535;28;20044;-84
2023/07/13 07:37:04;;;;;;;;;;;;;;;30.94;30.41;101367.56;5064220;28;19912;-82
2023/07/13 07:39:29;;;;;;;;;;;;;;;31.00;31.13;101370.00;5063652;28;20031;-82
2023/07/13 07:41:55;;;;;;;;;;;;;;;31.10;30.75;101364.66;5062320;28;19920;-83
2023/07/13 07:44:20;;;;;;;;;;;;;;;31.14;30.50;101371.03;5064935;28;20360;-82
2023/07/13 07:46:46;;;;;;;;;;;;;;;31.26;30.87;101370.06;5063915;28;19921;-82
2023/07/13 07:49:11;;;;;;;;;;;;;;;31.46;30.93;101368.75;5054735;28;19976;-82
2023/07/13 07:51:37;;;;;;;;;;;;;;;31.63;29.99;101367.38;5057945;28;20588;-82
2023/07/13 07:54:02;;;;;;;;;;;;;;;31.70;30.42;101375.75;5063061;28;19928;-82
2023/07/13 07:56:28;;;;;;;;;;;;;;;31.75;30.07;101374.66;5065488;28;20201;-82
2023/07/13 07:58:53;;;;;;;;;;;;;;;31.83;30.17;101373.59;5064945;28;19975;-82
2023/07/13 08:01:18;;;;;;;;;;;;;;;31.88;29.50;101366.91;5062143;28;20007;-81
2023/07/13 08:03:44;;;;;;;;;;;;;;;31.98;29.89;101374.56;5059447;28;20015;-81
2023/07/13 08:06:09;;;;;;;;;;;;;;;32.08;29.76;101373.84;5056754;28;19999;-83
2023/07/13 08:08:35;;;;;;;;;;;;;;;32.16;29.20;101383.84;5056753;28;19927;-83
2023/07/13 08:11:04;;;;;;;;;;;;;;;32.17;28.65;101377.94;5057322;28;20335;-81
2023/07/13 08:13:29;;;;;;;;;;;;;;;32.19;29.42;101379.53;5055506;28;20385;-81
2023/07/13 08:15:54;;;;;;;;;;;;;;;32.27;28.97;101386.75;5063463;28;19921;-82
2023/07/13 08:18:20;;;;;;;;;;;;;;;32.24;28.02;101384.72;5057062;28;20007;-82
2023/07/13 08:20:46;;;;;;;;;;;;;;;32.26;28.98;101390.66;5060200;28;19924;-82
2023/07/13 08:23:11;;;;;;;;;;;;;;;32.26;28.55;101393.44;5055578;28;20426;-82
2023/07/13 08:25:36;;;;;;;;;;;;;;;32.30;28.40;101392.31;5056146;28;19916;-82
2023/07/13 08:28:02;;;;;;;;;;;;;;;32.41;28.37;101379.38;5057936;28;19951;-82
2023/07/13 08:30:28;;;;;;;;;;;;;;;32.51;28.48;101386.22;5054972;28;20472;-82
2023/07/13 08:32:53;;;;;;;;;;;;;;;32.55;28.03;101384.25;5054667;28;19999;-82
2023/07/13 08:35:19;;;;;;;;;;;;;;;32.62;27.76;101387.09;5058185;28;19926;-81
2023/07/13 08:37:44;;;;;;;;;;;;;;;32.69;28.01;101392.72;5057073;28;19925;-82
2023/07/13 08:40:13;;;;;;;;;;;;;;;32.78;26.46;101386.81;5053566;28;19923;-81
2023/07/13 08:42:46;;;;;;;;;;;;;;;32.81;27.03;101388.84;5054502;28;19924;-83
2023/07/13 08:45:17;;;;;;;;;;;;;;;32.84;27.73;101381.72;5057099;28;19920;-82
2023/07/13 08:47:47;;;;;;;;;;;;;;;32.86;26.93;101384.94;5058263;28;19925;-81
2023/07/13 08:50:15;;;;;;;;;;;;;;;32.90;27.23;101385.75;5056473;28;19952;-82
2023/07/13 08:52:41;;;;;;;;;;;;;;;32.99;27.19;101389.78;5057241;28;19920;-81
2023/07/13 08:55:12;;;;;;;;;;;;;;;33.17;27.09;101392.69;5058767;28;19921;-82
2023/07/13 08:57:40;;;;;;;;;;;;;;;33.37;26.54;101397.97;5057458;28;20402;-82
2023/07/13 09:00:08;;;;;;;;;;;;;;;33.41;26.38;101394.06;5060826;28;20011;-82
2023/07/13 09:02:43;;;;;;;;;;;;;;;33.51;26.56;101392.50;5056205;28;19924;-82
2023/07/13 09:05:12;;;;;;;;;;;;;;;33.50;26.37;101390.91;5057183;28;20445;-82
2023/07/13 09:07:40;;;;;;;;;;;;;;;33.59;26.81;101392.16;5057497;28;19932;-82
2023/07/13 09:10:06;;;;;;;;;;;;;;;33.76;26.43;101393.44;5053943;28;19928;-81
2023/07/13 09:12:34;;;;;;;;;;;;;;;33.86;26.50;101395.47;5060376;28;19923;-81
2023/07/13 09:15:02;;;;;;;;;;;;;;;33.82;26.71;101386.28;5063255;28;19916;-81
2023/07/13 09:17:29;;;;;;;;;;;;;;;33.75;26.12;101393.78;5066784;28;19916;-82
2023/07/13 09:19:59;;;;;;;;;;;;;;;33.52;26.19;101388.53;5065426;28;19916;-82
2023/07/13 09:22:26;;;;;;;;;;;;;;;33.39;26.32;101378.94;5066761;28;19916;-82
2023/07/13 09:24:51;;;;;;;;;;;;;;;33.37;26.76;101389.66;5054368;28;19987;-84
2023/07/13 09:27:19;;;;;;;;;;;;;;;33.29;25.75;101386.00;5064414;28;20468;-84
2023/07/13 09:29:57;;;;;;;;;;;;;;;33.21;25.93;101389.91;5062983;28;19944;-82
2023/07/13 09:32:24;;;;;;;;;;;;;;;33.05;25.71;101391.03;5062083;28;19927;-83
2023/07/13 09:34:54;;;;;;;;;;;;;;;32.93;26.04;101379.44;5064598;28;19916;-83
2023/07/13 09:37:27;;;;;;;;;;;;;;;32.92;25.79;101383.41;5062263;28;19951;-83
2023/07/13 09:39:53;;;;;;;;;;;;;;;32.95;25.58;101386.19;5064144;28;19966;-83
2023/07/13 09:42:21;;;;;;;;;;;;;;;32.88;25.62;101377.81;5066148;28;19916;-84
2023/07/13 09:44:49;;;;;;;;;;;;;;;32.93;26.22;101385.00;5060162;28;19920;-84
2023/07/13 09:47:23;;;;;;;;;;;;;;;33.03;25.80;101378.69;5058549;28;20015;-83
2023/07/13 09:49:54;;;;;;;;;;;;;;;33.11;25.80;101385.91;5063410;28;19920;-83
2023/07/13 09:52:19;;;;;;;;;;;;;;;33.07;26.12;101390.66;5061026;28;19920;-84
2023/07/13 09:54:48;;;;;;;;;;;;;;;33.03;25.35;101395.34;5064666;28;19951;-84
2023/07/13 09:57:18;;;;;;;;;;;;;;;33.05;25.87;101395.78;5065089;28;20303;-84
2023/07/13 09:59:46;;;;;;;;;;;;;;;33.04;25.79;101391.44;5064004;28;19912;-84
2023/07/13 10:02:23;;;;;;;;;;;;;;;33.01;26.14;101389.41;5065479;28;19931;-83
2023/07/13 10:04:55;;;;;;;;;;;;;;;33.05;26.05;101393.00;5063374;28;19976;-83
2023/07/13 10:07:22;;;;;;;;;;;;;;;33.10;24.86;101384.31;5062121;28;20406;-84
2023/07/13 10:09:51;;;;;;;;;;;;;;;33.05;25.69;101390.25;5064446;28;20388;-83
2023/07/13 10:12:18;;;;;;;;;;;;;;;32.97;24.62;101403.25;5069772;28;19916;-85
2023/07/13 10:14:43;;;;;;;;;;;;;;;32.93;25.78;101407.19;5062837;28;19916;-83
2023/07/13 10:17:11;;;;;;;;;;;;;;;32.86;25.24;101401.59;5066103;28;19924;-84
2023/07/13 10:19:37;;;;;;;;;;;;;;;32.82;25.37;101395.19;5062243;28;20147;-84
2023/07/13 10:22:13;;;;;;;;;;;;;;;32.87;25.78;101408.75;5065778;28;20419;-84
2023/07/13 10:24:39;;;;;;;;;;;;;;;33.13;25.56;101394.66;5063737;28;19917;-84
2023/07/13 10:27:18;;;;;;;;;;;;;;;33.42;25.75;101394.84;5065352;28;20110;-86
2023/07/13 10:29:46;;;;;;;;;;;;;;;33.68;24.58;101394.56;5059637;28;19931;-85
2023/07/13 10:32:12;;;;;;;;;;;;;;;33.69;25.19;101398.94;5061585;28;20003;-84
2023/07/13 10:34:38;;;;;;;;;;;;;;;33.64;24.95;101397.34;5065250;28;20407;-83
2023/07/13 10:37:05;;;;;;;;;;;;;;;33.58;25.15;101400.91;5064556;28;19916;-84
2023/07/13 10:39:30;;;;;;;;;;;;;;;33.47;24.47;101395.28;5060334;28;19932;-83
2023/07/13 10:42:00;;;;;;;;;;;;;;;33.37;24.84;101397.97;5063173;28;20037;-83
2023/07/13 10:44:28;;;;;;;;;;;;;;;33.29;24.96;101403.47;5059414;28;19959;-84
2023/07/13 10:46:55;;;;;;;;;;;;;;;33.19;24.62;101404.19;5059403;28;19970;-83
2023/07/13 10:49:21;;;;;;;;;;;;;;;33.09;24.97;101401.38;5057759;28;19924;-85
2023/07/13 10:51:47;;;;;;;;;;;;;;;33.07;24.94;101404.53;5065114;28;19951;-84
2023/07/13 10:54:17;;;;;;;;;;;;;;;33.04;24.17;101419.19;5060409;28;20364;-84
2023/07/13 10:56:43;;;;;;;;;;;;;;;33.01;24.31;101406.06;5058958;28;19977;-84
2023/07/13 10:59:08;;;;;;;;;;;;;;;33.18;25.13;101410.94;5055908;28;19924;-84
2023/07/13 11:01:46;;;;;;;;;;;;;;;33.39;24.69;101401.97;5059759;28;20379;-84
2023/07/13 11:04:13;;;;;;;;;;;;;;;33.49;23.84;101401.22;5067359;28;19952;-84
2023/07/13 11:06:41;;;;;;;;;;;;;;;33.54;24.66;101405.63;5062406;28;19924;-83
2023/07/13 11:09:44;;;;;;;;;;;;;;;33.47;24.39;101397.25;5059841;28;19927;-82
2023/07/13 11:12:30;;;;;;;;;;;;;;;33.42;24.46;101395.66;5051145;28;20028;-83
2023/07/13 11:14:55;;;;;;;;;;;;;;;33.42;24.52;101395.66;5045873;28;19920;-82
2023/07/13 11:17:27;;;;;;;;;;;;;;;33.46;24.63;101404.00;5057870;28;19924;-82
2023/07/13 11:19:53;;;;;;;;;;;;;;;33.51;24.78;101403.63;5057508;28;19946;-83
2023/07/13 11:22:22;;;;;;;;;;;;;;;33.58;24.61;101401.69;5058843;28;19956;-83
2023/07/13 11:24:57;;;;;;;;;;;;;;;33.72;24.24;101392.59;5059760;28;20008;-82
2023/07/13 11:27:35;;;;;;;;;;;;;;;34.02;24.50;101386.00;5061535;28;19923;-82
2023/07/13 11:30:22;;;;;;;;;;;;;;;34.39;24.26;101382.91;5059944;28;20452;-82
2023/07/13 11:32:50;;;;;;;;;;;;;;;34.68;23.89;101381.75;5047304;28;20010;-82
2023/07/13 11:35:19;;;;;;;;;;;;;;;34.79;23.63;101381.72;5058621;28;19920;-83
2023/07/13 11:37:45;;;;;;;;;;;;;;;34.65;22.80;101390.06;5059220;28;20014;-84
2023/07/13 11:40:14;;;;;;;;;;;;;;;34.42;23.33;101385.69;5060245;28;20050;-85
2023/07/13 11:42:39;;;;;;;;;;;;;;;34.39;23.39;101383.69;5054307;28;19962;-85
2023/07/13 11:45:18;;;;;;;;;;;;;;;34.37;23.34;101383.31;5056887;28;20355;-85
2023/07/13 11:47:43;;;;;;;;;;;;;;;34.35;23.25;101382.09;5057468;28;19924;-85
2023/07/13 11:50:17;;;;;;;;;;;;;;;34.31;23.51;101382.09;5056674;28;20341;-85
2023/07/13 11:52:43;;;;;;;;;;;;;;;34.28;23.77;101384.84;5055118;28;19920;-84
2023/07/13 11:55:14;;;;;;;;;;;;;;;34.25;23.94;101380.88;5056468;28;19927;-86
2023/07/13 11:57:43;;;;;;;;;;;;;;;34.19;23.72;101383.25;5060441;28;19916;-85
2023/07/13 12:00:17;;;;;;;;;;;;;;;34.11;22.74;101378.88;5056249;28;19974;-86
2023/07/13 12:02:46;;;;;;;;;;;;;;;34.00;22.72;101375.25;5053693;28;20396;-85
2023/07/13 12:05:15;;;;;;;;;;;;;;;33.90;23.38;101371.25;5055698;28;20408;-85
2023/07/13 12:07:41;;;;;;;;;;;;;;;33.92;24.02;101374.44;5057907;28;20004;-86
2023/07/13 12:10:12;;;;;;;;;;;;;;;33.99;23.70;101378.44;5056481;28;20015;-86
2023/07/13 12:12:37;;;;;;;;;;;;;;;34.11;23.67;101380.84;5054624;28;20376;-86
2023/07/13 12:15:06;;;;;;;;;;;;;;;34.28;23.54;101380.06;5058935;28;19921;-85
2023/07/13 12:17:34;;;;;;;;;;;;;;;34.46;23.13;101380.13;5051538;28;19966;-85
2023/07/13 12:20:00;;;;;;;;;;;;;;;34.44;23.05;101383.31;5058187;28;19990;-84
2023/07/13 12:22:25;;;;;;;;;;;;;;;34.34;22.81;101383.28;5055051;28;20295;-83
2023/07/13 12:24:51;;;;;;;;;;;;;;;34.35;22.93;101377.34;5055185;28;19919;-83
2023/07/13 12:27:26;;;;;;;;;;;;;;;34.46;22.82;101378.13;5061318;28;19927;-83
2023/07/13 12:29:59;;;;;;;;;;;;;;;34.57;22.98;101375.38;5061670;28;19973;-83
2023/07/13 12:32:25;;;;;;;;;;;;;;;34.65;22.36;101370.59;5058903;28;20381;-82
2023/07/13 12:34:55;;;;;;;;;;;;;;;34.68;22.66;101369.81;5061906;28;19923;-82